sensor_id;sensor_type;location;lat;lon;timestamp;pressure;altitude;pressure_sealevel;temperature;humidity
54816;BME280;40715;55.752;37.884;2023-07-09T00:01:28;98786.88;;;32.61;33.11
54816;BME280;40715;55.752;37.884;2023-07-09T00:03:55;98793.56;;;32.59;32.87
54816;BME280;40715;55.752;37.884;2023-07-09T00:06:22;98791.03;;;32.57;32.65
54816;BME280;40715;55.752;37.884;2023-07-09T00:08:49;98780.94;;;32.51;32.70
54816;BME280;40715;55.752;37.884;2023-07-09T00:11:17;98785.53;;;32.50;32.72
54816;BME280;40715;55.752;37.884;2023-07-09T00:13:44;98783.81;;;32.49;32.33
54816;BME280;40715;55.752;37.884;2023-07-09T00:16:14;98784.22;;;32.46;32.66
54816;BME280;40715;55.752;37.884;2023-07-09T00:18:43;98780.66;;;32.46;32.04
54816;BME280;40715;55.752;37.884;2023-07-09T00:21:11;98790.94;;;32.44;31.80
54816;BME280;40715;55.752;37.884;2023-07-09T00:23:37;98768.47;;;32.42;32.10
54816;BME280;40715;55.752;37.884;2023-07-09T00:26:13;98770.56;;;32.40;31.98
54816;BME280;40715;55.752;37.884;2023-07-09T00:28:41;98764.63;;;32.36;31.65
54816;BME280;40715;55.752;37.884;2023-07-09T00:31:13;98768.19;;;32.37;31.95
54816;BME280;40715;55.752;37.884;2023-07-09T00:33:43;98767.75;;;32.33;31.40
54816;BME280;40715;55.752;37.884;2023-07-09T00:36:15;98766.72;;;32.34;31.57
54816;BME280;40715;55.752;37.884;2023-07-09T00:38:42;98763.53;;;32.30;31.28
54816;BME280;40715;55.752;37.884;2023-07-09T00:41:18;98755.75;;;32.27;31.38
54816;BME280;40715;55.752;37.884;2023-07-09T00:43:47;98753.22;;;32.26;30.91
54816;BME280;40715;55.752;37.884;2023-07-09T00:49:29;98760.03;;;32.37;30.93
54816;BME280;40715;55.752;37.884;2023-07-09T00:52:01;98752.13;;;32.20;30.73
54816;BME280;40715;55.752;37.884;2023-07-09T00:54:34;98737.00;;;32.17;30.73
54816;BME280;40715;55.752;37.884;2023-07-09T00:57:12;98741.66;;;32.24;30.66
54816;BME280;40715;55.752;37.884;2023-07-09T00:59:50;98732.22;;;32.20;30.74
54816;BME280;40715;55.752;37.884;2023-07-09T01:02:20;98727.34;;;32.15;30.09
54816;BME280;40715;55.752;37.884;2023-07-09T01:04:56;98730.94;;;32.15;30.11
54816;BME280;40715;55.752;37.884;2023-07-09T01:07:31;98744.88;;;32.12;30.50
54816;BME280;40715;55.752;37.884;2023-07-09T01:09:58;98739.63;;;32.11;29.94
54816;BME280;40715;55.752;37.884;2023-07-09T01:12:25;98738.81;;;32.10;30.29
54816;BME280;40715;55.752;37.884;2023-07-09T01:14:54;98737.97;;;32.10;29.96
54816;BME280;40715;55.752;37.884;2023-07-09T01:17:28;98731.84;;;32.08;29.63
54816;BME280;40715;55.752;37.884;2023-07-09T01:19:57;98736.47;;;32.07;30.02
54816;BME280;40715;55.752;37.884;2023-07-09T01:22:25;98733.75;;;32.07;29.69
54816;BME280;40715;55.752;37.884;2023-07-09T01:24:59;98726.41;;;32.08;29.79
54816;BME280;40715;55.752;37.884;2023-07-09T01:27:42;98719.25;;;32.07;29.80
54816;BME280;40715;55.752;37.884;2023-07-09T01:30:12;98732.06;;;32.06;29.45
54816;BME280;40715;55.752;37.884;2023-07-09T01:32:42;98731.41;;;32.04;29.63
54816;BME280;40715;55.752;37.884;2023-07-09T01:35:14;98736.00;;;32.04;29.28
54816;BME280;40715;55.752;37.884;2023-07-09T01:37:44;98731.63;;;32.03;29.23
54816;BME280;40715;55.752;37.884;2023-07-09T01:40:14;98729.94;;;32.01;29.42
54816;BME280;40715;55.752;37.884;2023-07-09T01:42:56;98724.28;;;32.03;29.20
54816;BME280;40715;55.752;37.884;2023-07-09T01:45:24;98736.88;;;32.04;29.18
54816;BME280;40715;55.752;37.884;2023-07-09T01:47:52;98725.31;;;32.02;29.43
54816;BME280;40715;55.752;37.884;2023-07-09T01:50:20;98728.44;;;31.99;29.51
54816;BME280;40715;55.752;37.884;2023-07-09T01:52:47;98730.75;;;32.02;29.27
54816;BME280;40715;55.752;37.884;2023-07-09T01:55:16;98729.94;;;32.01;29.45
54816;BME280;40715;55.752;37.884;2023-07-09T01:57:44;98732.44;;;32.03;29.20
54816;BME280;40715;55.752;37.884;2023-07-09T02:00:15;98727.00;;;32.03;29.17
54816;BME280;40715;55.752;37.884;2023-07-09T02:02:45;98723.44;;;32.03;29.72
54816;BME280;40715;55.752;37.884;2023-07-09T02:05:15;98724.47;;;32.01;29.27
54816;BME280;40715;55.752;37.884;2023-07-09T02:07:43;98732.25;;;32.05;29.49
54816;BME280;40715;55.752;37.884;2023-07-09T02:10:11;98733.09;;;32.05;29.57
54816;BME280;40715;55.752;37.884;2023-07-09T02:12:39;98732.06;;;32.06;29.13
54816;BME280;40715;55.752;37.884;2023-07-09T02:15:07;98726.81;;;32.05;29.70
54816;BME280;40715;55.752;37.884;2023-07-09T02:17:34;98722.84;;;32.07;29.25
54816;BME280;40715;55.752;37.884;2023-07-09T02:20:03;98732.72;;;32.08;29.59
54816;BME280;40715;55.752;37.884;2023-07-09T02:22:31;98725.19;;;32.10;29.45
54816;BME280;40715;55.752;37.884;2023-07-09T02:24:59;98719.72;;;32.10;29.34
54816;BME280;40715;55.752;37.884;2023-07-09T02:27:29;98726.88;;;32.11;29.65
54816;BME280;40715;55.752;37.884;2023-07-09T02:29:56;98729.22;;;32.14;29.31
54816;BME280;40715;55.752;37.884;2023-07-09T02:32:25;98733.00;;;32.13;29.47
54816;BME280;40715;55.752;37.884;2023-07-09T02:34:53;98731.97;;;32.14;29.37
54816;BME280;40715;55.752;37.884;2023-07-09T02:37:25;98722.75;;;32.15;29.20
54816;BME280;40715;55.752;37.884;2023-07-09T02:39:53;98723.59;;;32.16;29.38
54816;BME280;40715;55.752;37.884;2023-07-09T02:42:21;98725.09;;;32.18;29.30
54816;BME280;40715;55.752;37.884;2023-07-09T02:44:49;98719.25;;;32.22;29.62
54816;BME280;40715;55.752;37.884;2023-07-09T02:47:16;98716.72;;;32.20;29.58
54816;BME280;40715;55.752;37.884;2023-07-09T02:49:44;98719.88;;;32.24;29.75
54816;BME280;40715;55.752;37.884;2023-07-09T02:52:11;98718.00;;;32.24;29.25
54816;BME280;40715;55.752;37.884;2023-07-09T02:54:38;98722.03;;;32.28;29.71
54816;BME280;40715;55.752;37.884;2023-07-09T02:57:05;98728.31;;;32.29;29.50
54816;BME280;40715;55.752;37.884;2023-07-09T02:59:32;98721.63;;;32.31;29.61
54816;BME280;40715;55.752;37.884;2023-07-09T03:02:00;98715.97;;;32.33;29.48
54816;BME280;40715;55.752;37.884;2023-07-09T03:04:28;98714.53;;;32.37;29.59
54816;BME280;40715;55.752;37.884;2023-07-09T03:06:55;98711.41;;;32.40;29.30
54816;BME280;40715;55.752;37.884;2023-07-09T03:09:22;98724.66;;;32.43;29.12
54816;BME280;40715;55.752;37.884;2023-07-09T03:11:49;98717.97;;;32.46;29.11
54816;BME280;40715;55.752;37.884;2023-07-09T03:14:17;98712.72;;;32.44;29.49
54816;BME280;40715;55.752;37.884;2023-07-09T03:16:44;98712.25;;;32.41;29.10
54816;BME280;40715;55.752;37.884;2023-07-09T03:19:11;98714.84;;;32.49;28.99
54816;BME280;40715;55.752;37.884;2023-07-09T03:21:38;98713.59;;;32.51;29.37
54816;BME280;40715;55.752;37.884;2023-07-09T03:24:06;98707.94;;;32.53;29.35
54816;BME280;40715;55.752;37.884;2023-07-09T03:26:34;98709.03;;;32.59;29.30
54816;BME280;40715;55.752;37.884;2023-07-09T03:29:01;98708.00;;;32.60;29.30
54816;BME280;40715;55.752;37.884;2023-07-09T03:31:29;98707.81;;;32.61;28.84
54816;BME280;40715;55.752;37.884;2023-07-09T03:33:56;98703.44;;;32.67;28.94
54816;BME280;40715;55.752;37.884;2023-07-09T03:36:23;98705.78;;;32.70;28.89
54816;BME280;40715;55.752;37.884;2023-07-09T03:38:50;98705.38;;;32.73;28.92
54816;BME280;40715;55.752;37.884;2023-07-09T03:41:17;98712.34;;;32.76;28.59
54816;BME280;40715;55.752;37.884;2023-07-09T03:43:44;98710.03;;;32.79;28.96
54816;BME280;40715;55.752;37.884;2023-07-09T03:46:12;98713.63;;;32.80;28.79
54816;BME280;40715;55.752;37.884;2023-07-09T03:48:39;98721.00;;;32.86;28.59
54816;BME280;40715;55.752;37.884;2023-07-09T03:51:06;98720.78;;;32.88;28.82
54816;BME280;40715;55.752;37.884;2023-07-09T03:53:34;98722.06;;;32.92;28.62
54816;BME280;40715;55.752;37.884;2023-07-09T03:56:01;98712.66;;;32.94;28.53
54816;BME280;40715;55.752;37.884;2023-07-09T03:58:28;98711.00;;;33.00;28.24
54816;BME280;40715;55.752;37.884;2023-07-09T04:00:55;98716.03;;;33.03;28.55
54816;BME280;40715;55.752;37.884;2023-07-09T04:03:22;98704.53;;;33.08;28.55
54816;BME280;40715;55.752;37.884;2023-07-09T04:05:50;98699.72;;;33.10;28.31
54816;BME280;40715;55.752;37.884;2023-07-09T04:08:18;98699.72;;;33.16;28.39
54816;BME280;40715;55.752;37.884;2023-07-09T04:10:44;98698.97;;;33.23;28.17
54816;BME280;40715;55.752;37.884;2023-07-09T04:13:12;98698.97;;;33.29;28.13
54816;BME280;40715;55.752;37.884;2023-07-09T04:15:39;98707.66;;;33.40;28.30
54816;BME280;40715;55.752;37.884;2023-07-09T04:18:06;98710.81;;;33.50;27.99
54816;BME280;40715;55.752;37.884;2023-07-09T04:20:33;98704.75;;;33.61;28.07
54816;BME280;40715;55.752;37.884;2023-07-09T04:23:03;98701.63;;;33.71;27.78
54816;BME280;40715;55.752;37.884;2023-07-09T04:25:31;98706.31;;;33.84;27.91
54816;BME280;40715;55.752;37.884;2023-07-09T04:27:58;98702.97;;;33.95;27.62
54816;BME280;40715;55.752;37.884;2023-07-09T04:30:26;98701.28;;;34.08;27.48
54816;BME280;40715;55.752;37.884;2023-07-09T04:32:53;98702.56;;;34.18;27.41
54816;BME280;40715;55.752;37.884;2023-07-09T04:35:20;98693.97;;;34.28;27.29
54816;BME280;40715;55.752;37.884;2023-07-09T04:37:47;98701.09;;;34.36;27.09
54816;BME280;40715;55.752;37.884;2023-07-09T04:40:14;98703.84;;;34.43;27.32
54816;BME280;40715;55.752;37.884;2023-07-09T04:42:42;98698.78;;;34.53;27.19
54816;BME280;40715;55.752;37.884;2023-07-09T04:45:11;98688.88;;;34.58;27.01
54816;BME280;40715;55.752;37.884;2023-07-09T04:47:38;98690.31;;;34.74;27.00
54816;BME280;40715;55.752;37.884;2023-07-09T04:50:07;98684.44;;;34.84;26.92
54816;BME280;40715;55.752;37.884;2023-07-09T04:52:34;98684.81;;;34.95;26.67
54816;BME280;40715;55.752;37.884;2023-07-09T04:55:01;98685.22;;;35.05;26.42
54816;BME280;40715;55.752;37.884;2023-07-09T04:57:29;98682.66;;;35.17;26.44
54816;BME280;40715;55.752;37.884;2023-07-09T04:59:56;98682.81;;;35.29;26.40
54816;BME280;40715;55.752;37.884;2023-07-09T05:02:24;98675.00;;;35.39;26.18
54816;BME280;40715;55.752;37.884;2023-07-09T05:04:51;98683.53;;;35.56;26.20
54816;BME280;40715;55.752;37.884;2023-07-09T05:07:18;98681.78;;;35.68;26.10
54816;BME280;40715;55.752;37.884;2023-07-09T05:09:45;98684.47;;;35.82;25.73
54816;BME280;40715;55.752;37.884;2023-07-09T05:12:13;98678.25;;;35.93;25.84
54816;BME280;40715;55.752;37.884;2023-07-09T05:14:40;98672.69;;;36.06;25.73
54816;BME280;40715;55.752;37.884;2023-07-09T05:17:07;98681.25;;;36.17;25.83
54816;BME280;40715;55.752;37.884;2023-07-09T05:19:35;98682.44;;;36.27;25.31
54816;BME280;40715;55.752;37.884;2023-07-09T05:22:02;98674.56;;;36.38;25.18
54816;BME280;40715;55.752;37.884;2023-07-09T05:24:29;98681.22;;;36.49;25.13
54816;BME280;40715;55.752;37.884;2023-07-09T05:26:56;98681.53;;;36.59;25.22
54816;BME280;40715;55.752;37.884;2023-07-09T05:29:24;98682.06;;;36.68;24.83
54816;BME280;40715;55.752;37.884;2023-07-09T05:31:52;98673.53;;;36.76;24.59
54816;BME280;40715;55.752;37.884;2023-07-09T05:34:19;98677.22;;;36.88;24.90
54816;BME280;40715;55.752;37.884;2023-07-09T05:36:46;98674.88;;;36.92;24.79
54816;BME280;40715;55.752;37.884;2023-07-09T05:39:13;98681.34;;;36.97;24.47
54816;BME280;40715;55.752;37.884;2023-07-09T05:41:40;98678.28;;;37.06;24.48
54816;BME280;40715;55.752;37.884;2023-07-09T05:44:07;98678.19;;;37.12;24.38
54816;BME280;40715;55.752;37.884;2023-07-09T05:46:35;98680.63;;;37.21;24.43
54816;BME280;40715;55.752;37.884;2023-07-09T05:49:04;98676.16;;;37.26;24.24
54816;BME280;40715;55.752;37.884;2023-07-09T05:51:32;98677.28;;;37.37;23.83
54816;BME280;40715;55.752;37.884;2023-07-09T05:53:59;98663.09;;;37.40;24.27
54816;BME280;40715;55.752;37.884;2023-07-09T05:56:26;98667.78;;;37.52;23.90
54816;BME280;40715;55.752;37.884;2023-07-09T05:58:53;98672.97;;;37.60;24.08
54816;BME280;40715;55.752;37.884;2023-07-09T06:01:20;98669.50;;;37.64;23.89
54816;BME280;40715;55.752;37.884;2023-07-09T06:03:47;98662.22;;;37.70;24.05
54816;BME280;40715;55.752;37.884;2023-07-09T06:06:15;98662.16;;;37.77;23.75
54816;BME280;40715;55.752;37.884;2023-07-09T06:08:43;98670.53;;;37.82;23.51
54816;BME280;40715;55.752;37.884;2023-07-09T06:11:10;98679.50;;;37.89;23.19
54816;BME280;40715;55.752;37.884;2023-07-09T06:13:37;98672.72;;;37.92;23.35
54816;BME280;40715;55.752;37.884;2023-07-09T06:16:05;98667.34;;;37.97;23.00
54816;BME280;40715;55.752;37.884;2023-07-09T06:18:32;98673.06;;;37.95;23.10
54816;BME280;40715;55.752;37.884;2023-07-09T06:21:01;98670.09;;;37.97;23.03
54816;BME280;40715;55.752;37.884;2023-07-09T06:23:30;98666.88;;;38.00;23.10
54816;BME280;40715;55.752;37.884;2023-07-09T06:25:58;98662.34;;;38.06;23.24
54816;BME280;40715;55.752;37.884;2023-07-09T06:28:28;98665.44;;;38.09;22.96
54816;BME280;40715;55.752;37.884;2023-07-09T06:31:01;98662.94;;;38.08;22.70
54816;BME280;40715;55.752;37.884;2023-07-09T06:33:37;98658.97;;;37.92;22.54
54816;BME280;40715;55.752;37.884;2023-07-09T06:36:04;98661.06;;;37.78;22.54
54816;BME280;40715;55.752;37.884;2023-07-09T06:38:33;98647.53;;;37.64;23.00
54816;BME280;40715;55.752;37.884;2023-07-09T06:41:00;98650.84;;;37.55;22.68
54816;BME280;40715;55.752;37.884;2023-07-09T06:43:28;98650.91;;;37.48;22.80
54816;BME280;40715;55.752;37.884;2023-07-09T06:46:00;98649.66;;;37.32;23.04
54816;BME280;40715;55.752;37.884;2023-07-09T06:48:28;98648.00;;;37.12;23.14
54816;BME280;40715;55.752;37.884;2023-07-09T06:51:03;98647.34;;;36.99;23.13
54816;BME280;40715;55.752;37.884;2023-07-09T06:53:31;98647.13;;;36.82;22.97
54816;BME280;40715;55.752;37.884;2023-07-09T06:55:58;98648.19;;;36.81;22.96
54816;BME280;40715;55.752;37.884;2023-07-09T06:58:28;98640.00;;;36.92;23.55
54816;BME280;40715;55.752;37.884;2023-07-09T07:00:55;98640.47;;;37.08;23.27
54816;BME280;40715;55.752;37.884;2023-07-09T07:03:22;98630.69;;;37.12;23.01
54816;BME280;40715;55.752;37.884;2023-07-09T07:05:52;98626.72;;;37.08;23.35
54816;BME280;40715;55.752;37.884;2023-07-09T07:08:25;98632.16;;;36.96;23.26
54816;BME280;40715;55.752;37.884;2023-07-09T07:11:00;98625.97;;;37.01;22.85
54816;BME280;40715;55.752;37.884;2023-07-09T07:13:37;98619.91;;;36.99;23.40
54816;BME280;40715;55.752;37.884;2023-07-09T07:16:08;98617.28;;;37.04;22.80
54816;BME280;40715;55.752;37.884;2023-07-09T07:18:35;98625.44;;;37.10;23.14
54816;BME280;40715;55.752;37.884;2023-07-09T07:21:03;98627.00;;;37.18;23.37
54816;BME280;40715;55.752;37.884;2023-07-09T07:23:30;98624.94;;;37.32;22.92
54816;BME280;40715;55.752;37.884;2023-07-09T07:25:57;98616.31;;;37.47;23.38
54816;BME280;40715;55.752;37.884;2023-07-09T07:28:24;98619.91;;;37.59;23.29
54816;BME280;40715;55.752;37.884;2023-07-09T07:31:06;98622.38;;;37.79;23.31
54816;BME280;40715;55.752;37.884;2023-07-09T07:33:35;98616.09;;;37.72;22.78
54816;BME280;40715;55.752;37.884;2023-07-09T07:36:05;98615.03;;;37.73;23.00
54816;BME280;40715;55.752;37.884;2023-07-09T07:38:53;98623.09;;;37.87;23.25
54816;BME280;40715;55.752;37.884;2023-07-09T07:41:20;98619.16;;;37.94;23.16
54816;BME280;40715;55.752;37.884;2023-07-09T07:43:46;98614.28;;;38.08;23.11
54816;BME280;40715;55.752;37.884;2023-07-09T07:46:13;98607.94;;;38.20;22.80
54816;BME280;40715;55.752;37.884;2023-07-09T07:48:40;98613.81;;;38.35;22.82
54816;BME280;40715;55.752;37.884;2023-07-09T07:51:07;98621.22;;;38.46;22.87
54816;BME280;40715;55.752;37.884;2023-07-09T07:53:34;98615.22;;;38.49;23.05
54816;BME280;40715;55.752;37.884;2023-07-09T07:56:01;98618.00;;;38.38;22.95
54816;BME280;40715;55.752;37.884;2023-07-09T07:58:30;98612.59;;;38.19;22.65
54816;BME280;40715;55.752;37.884;2023-07-09T08:00:58;98609.25;;;38.17;23.04
54816;BME280;40715;55.752;37.884;2023-07-09T08:03:25;98605.34;;;38.25;22.92
54816;BME280;40715;55.752;37.884;2023-07-09T08:05:53;98606.41;;;38.36;23.16
54816;BME280;40715;55.752;37.884;2023-07-09T08:08:20;98598.88;;;38.43;22.51
54816;BME280;40715;55.752;37.884;2023-07-09T08:10:49;98601.47;;;38.49;22.66
54816;BME280;40715;55.752;37.884;2023-07-09T08:13:18;98598.84;;;38.55;22.66
54816;BME280;40715;55.752;37.884;2023-07-09T08:15:46;98594.66;;;38.64;22.59
54816;BME280;40715;55.752;37.884;2023-07-09T08:18:13;98585.22;;;38.72;22.80
54816;BME280;40715;55.752;37.884;2023-07-09T08:20:43;98596.91;;;38.79;23.02
54816;BME280;40715;55.752;37.884;2023-07-09T08:23:11;98594.03;;;38.86;22.52
54816;BME280;40715;55.752;37.884;2023-07-09T08:25:38;98592.47;;;38.90;22.68
54816;BME280;40715;55.752;37.884;2023-07-09T08:28:05;98591.38;;;38.91;22.62
54816;BME280;40715;55.752;37.884;2023-07-09T08:30:33;98596.53;;;38.87;22.65
54816;BME280;40715;55.752;37.884;2023-07-09T08:33:00;98596.03;;;38.90;22.27
54816;BME280;40715;55.752;37.884;2023-07-09T08:35:27;98590.91;;;38.94;22.58
54816;BME280;40715;55.752;37.884;2023-07-09T08:38:02;98588.84;;;38.89;22.41
54816;BME280;40715;55.752;37.884;2023-07-09T08:40:29;98586.03;;;38.72;22.67
54816;BME280;40715;55.752;37.884;2023-07-09T08:43:05;98573.84;;;38.56;22.54
54816;BME280;40715;55.752;37.884;2023-07-09T08:45:45;98577.81;;;38.48;22.57
54816;BME280;40715;55.752;37.884;2023-07-09T08:50:43;98579.63;;;38.43;22.94
54816;BME280;40715;55.752;37.884;2023-07-09T08:53:39;98564.63;;;38.50;22.84
54816;BME280;40715;55.752;37.884;2023-07-09T08:56:09;98574.59;;;38.16;22.65
54816;BME280;40715;55.752;37.884;2023-07-09T08:58:37;98576.00;;;37.95;22.79
54816;BME280;40715;55.752;37.884;2023-07-09T09:01:06;98568.69;;;37.77;22.83
54816;BME280;40715;55.752;37.884;2023-07-09T09:03:43;98562.91;;;38.32;22.16
54816;BME280;40715;55.752;37.884;2023-07-09T09:06:25;98558.97;;;37.51;23.53
54816;BME280;40715;55.752;37.884;2023-07-09T09:12:30;98551.09;;;37.66;23.64
54816;BME280;40715;55.752;37.884;2023-07-09T09:15:04;98546.78;;;37.46;23.87
54816;BME280;40715;55.752;37.884;2023-07-09T09:17:38;98546.41;;;37.43;23.85
54816;BME280;40715;55.752;37.884;2023-07-09T09:20:16;98531.00;;;37.42;23.73
54816;BME280;40715;55.752;37.884;2023-07-09T09:28:02;98525.84;;;37.34;23.33
54816;BME280;40715;55.752;37.884;2023-07-09T09:30:30;98513.88;;;37.28;22.89
54816;BME280;40715;55.752;37.884;2023-07-09T09:35:38;98507.56;;;37.27;23.25
54816;BME280;40715;55.752;37.884;2023-07-09T09:38:18;98508.25;;;37.23;23.30
54816;BME280;40715;55.752;37.884;2023-07-09T09:41:03;98510.91;;;36.99;22.37
54816;BME280;40715;55.752;37.884;2023-07-09T09:43:33;98509.22;;;36.68;22.96
54816;BME280;40715;55.752;37.884;2023-07-09T09:46:06;98513.50;;;36.45;22.98
54816;BME280;40715;55.752;37.884;2023-07-09T09:48:33;98519.41;;;36.23;22.95
54816;BME280;40715;55.752;37.884;2023-07-09T09:51:04;98505.72;;;36.05;23.06
54816;BME280;40715;55.752;37.884;2023-07-09T09:53:38;98504.53;;;35.94;23.32
54816;BME280;40715;55.752;37.884;2023-07-09T09:56:13;98493.72;;;35.81;23.13
54816;BME280;40715;55.752;37.884;2023-07-09T09:58:41;98499.28;;;35.67;23.53
54816;BME280;40715;55.752;37.884;2023-07-09T10:01:16;98490.28;;;35.60;23.63
54816;BME280;40715;55.752;37.884;2023-07-09T10:03:47;98502.75;;;35.56;23.65
54816;BME280;40715;55.752;37.884;2023-07-09T10:11:58;98483.31;;;35.39;23.91
54816;BME280;40715;55.752;37.884;2023-07-09T10:25:10;98484.31;;;34.74;23.71
54816;BME280;40715;55.752;37.884;2023-07-09T10:35:29;98479.94;;;33.20;25.29
54816;BME280;40715;55.752;37.884;2023-07-09T10:38:44;98469.91;;;33.21;24.92
54816;BME280;40715;55.752;37.884;2023-07-09T10:41:09;98477.19;;;33.00;25.15
54816;BME280;40715;55.752;37.884;2023-07-09T10:43:46;98474.88;;;32.91;25.11
54816;BME280;40715;55.752;37.884;2023-07-09T10:46:22;98468.59;;;32.90;25.37
54816;BME280;40715;55.752;37.884;2023-07-09T10:48:53;98470.22;;;32.78;25.37
54816;BME280;40715;55.752;37.884;2023-07-09T10:51:26;98460.97;;;32.72;25.22
54816;BME280;40715;55.752;37.884;2023-07-09T10:54:34;98463.47;;;32.67;25.25
54816;BME280;40715;55.752;37.884;2023-07-09T10:56:59;98462.19;;;32.63;25.29
54816;BME280;40715;55.752;37.884;2023-07-09T10:59:37;98453.59;;;32.66;25.04
54816;BME280;40715;55.752;37.884;2023-07-09T11:02:17;98469.53;;;32.56;25.03
54816;BME280;40715;55.752;37.884;2023-07-09T11:04:51;98468.63;;;32.42;25.29
54816;BME280;40715;55.752;37.884;2023-07-09T11:07:29;98464.88;;;32.43;25.30
54816;BME280;40715;55.752;37.884;2023-07-09T11:10:01;98469.00;;;32.32;25.10
54816;BME280;40715;55.752;37.884;2023-07-09T11:12:38;98460.00;;;32.31;25.14
54816;BME280;40715;55.752;37.884;2023-07-09T11:15:12;98470.03;;;32.24;25.42
54816;BME280;40715;55.752;37.884;2023-07-09T11:17:43;98463.50;;;32.18;25.21
54816;BME280;40715;55.752;37.884;2023-07-09T11:20:32;98464.78;;;32.29;25.14
54816;BME280;40715;55.752;37.884;2023-07-09T11:23:07;98459.75;;;32.20;25.43
54816;BME280;40715;55.752;37.884;2023-07-09T11:25:45;98450.84;;;32.11;25.17
54816;BME280;40715;55.752;37.884;2023-07-09T11:28:13;98454.44;;;32.11;25.40
54816;BME280;40715;55.752;37.884;2023-07-09T11:30:54;98456.56;;;32.16;25.15
54816;BME280;40715;55.752;37.884;2023-07-09T11:33:28;98452.94;;;32.09;24.89
54816;BME280;40715;55.752;37.884;2023-07-09T11:36:14;98453.56;;;32.11;24.70
54816;BME280;40715;55.752;37.884;2023-07-09T11:38:50;98448.00;;;31.91;24.58
54816;BME280;40715;55.752;37.884;2023-07-09T11:41:34;98443.84;;;31.95;24.41
54816;BME280;40715;55.752;37.884;2023-07-09T11:44:26;98454.38;;;32.05;24.13
54816;BME280;40715;55.752;37.884;2023-07-09T11:50:00;98446.78;;;31.93;24.42
54816;BME280;40715;55.752;37.884;2023-07-09T11:52:46;98449.22;;;31.81;24.27
54816;BME280;40715;55.752;37.884;2023-07-09T11:55:31;98441.91;;;31.82;24.40
54816;BME280;40715;55.752;37.884;2023-07-09T11:58:02;98441.38;;;31.65;24.23
54816;BME280;40715;55.752;37.884;2023-07-09T12:00:41;98431.16;;;31.74;24.20
54816;BME280;40715;55.752;37.884;2023-07-09T12:03:17;98429.25;;;31.67;24.35
54816;BME280;40715;55.752;37.884;2023-07-09T12:05:52;98427.34;;;31.68;24.00
54816;BME280;40715;55.752;37.884;2023-07-09T12:08:29;98428.81;;;31.64;23.80
54816;BME280;40715;55.752;37.884;2023-07-09T12:10:57;98432.97;;;31.60;24.15
54816;BME280;40715;55.752;37.884;2023-07-09T12:13:24;98435.03;;;31.58;24.10
54816;BME280;40715;55.752;37.884;2023-07-09T12:15:51;98437.94;;;31.56;24.17
54816;BME280;40715;55.752;37.884;2023-07-09T12:18:18;98430.78;;;31.55;23.80
54816;BME280;40715;55.752;37.884;2023-07-09T12:20:49;98424.06;;;31.51;23.81
54816;BME280;40715;55.752;37.884;2023-07-09T12:23:28;98428.16;;;31.62;24.14
54816;BME280;40715;55.752;37.884;2023-07-09T12:26:00;98434.53;;;31.47;24.11
54816;BME280;40715;55.752;37.884;2023-07-09T12:28:28;98423.38;;;31.42;23.77
54816;BME280;40715;55.752;37.884;2023-07-09T12:30:56;98422.34;;;31.43;23.54
54816;BME280;40715;55.752;37.884;2023-07-09T12:33:27;98430.31;;;31.45;23.63
54816;BME280;40715;55.752;37.884;2023-07-09T12:36:00;98423.84;;;31.46;23.40
54816;BME280;40715;55.752;37.884;2023-07-09T12:38:31;98421.25;;;31.38;23.69
54816;BME280;40715;55.752;37.884;2023-07-09T12:41:02;98424.81;;;31.38;23.33
54816;BME280;40715;55.752;37.884;2023-07-09T12:43:32;98416.84;;;31.37;23.62
54816;BME280;40715;55.752;37.884;2023-07-09T12:46:01;98416.66;;;31.38;23.57
54816;BME280;40715;55.752;37.884;2023-07-09T12:48:29;98415.63;;;31.39;23.55
54816;BME280;40715;55.752;37.884;2023-07-09T12:50:58;98418.13;;;31.41;23.48
54816;BME280;40715;55.752;37.884;2023-07-09T12:53:28;98409.16;;;31.40;23.09
54816;BME280;40715;55.752;37.884;2023-07-09T12:56:00;98412.50;;;31.42;23.21
54816;BME280;40715;55.752;37.884;2023-07-09T12:58:29;98422.09;;;31.38;23.43
54816;BME280;40715;55.752;37.884;2023-07-09T13:00:58;98421.66;;;31.35;23.08
54816;BME280;40715;55.752;37.884;2023-07-09T13:03:30;98424.56;;;31.33;23.28
54816;BME280;40715;55.752;37.884;2023-07-09T13:06:03;98411.38;;;31.30;23.48
54816;BME280;40715;55.752;37.884;2023-07-09T13:08:56;98416.34;;;31.26;23.78
54816;BME280;40715;55.752;37.884;2023-07-09T13:11:19;98409.63;;;31.22;23.38
54816;BME280;40715;55.752;37.884;2023-07-09T13:13:58;98406.69;;;31.24;23.50
54816;BME280;40715;55.752;37.884;2023-07-09T13:16:26;98399.47;;;31.09;23.85
54816;BME280;40715;55.752;37.884;2023-07-09T13:18:54;98384.97;;;31.02;24.03
54816;BME280;40715;55.752;37.884;2023-07-09T13:21:22;98404.47;;;31.06;23.66
54816;BME280;40715;55.752;37.884;2023-07-09T13:23:52;98396.31;;;31.06;24.05
54816;BME280;40715;55.752;37.884;2023-07-09T13:26:19;98400.34;;;31.10;23.67
54816;BME280;40715;55.752;37.884;2023-07-09T13:28:46;98387.56;;;31.10;23.81
54816;BME280;40715;55.752;37.884;2023-07-09T13:31:17;98393.00;;;31.10;24.00
54816;BME280;40715;55.752;37.884;2023-07-09T13:33:50;98386.56;;;31.18;24.11
54816;BME280;40715;55.752;37.884;2023-07-09T13:36:19;98383.22;;;31.16;24.02
54816;BME280;40715;55.752;37.884;2023-07-09T13:38:46;98390.16;;;31.19;23.81
54816;BME280;40715;55.752;37.884;2023-07-09T13:41:16;98376.53;;;31.19;23.73
54816;BME280;40715;55.752;37.884;2023-07-09T13:43:46;98376.34;;;31.20;23.86
54816;BME280;40715;55.752;37.884;2023-07-09T13:46:14;98380.94;;;31.20;24.00
54816;BME280;40715;55.752;37.884;2023-07-09T13:48:43;98377.38;;;31.19;24.07
54816;BME280;40715;55.752;37.884;2023-07-09T13:51:17;98382.22;;;31.24;23.77